Overton, Nebraska
Current Conditions -  °F | °C
As of 6:35 AM on Thursday 23 Oct 2014 (Local Time) from KLXN Reporting Station
Moderate Fog Moderate Fog  
Wind Chill: 48°   Ceiling: 100
Heat Index: 48°   Visibility: 0.25mi
Dew Point: 47°   Wind: 3mph
Humidity: 99%   Direction: 290°WNW
Pressure: 30.08"   Gusts: NA
Location:  40.74°N, 99.54°W
Report Text: KLXN 231135Z AUTO 29003KT 1/4SM FG OVC001 09/09 A3008 RMK AO2 T00870085
Loading
Personal Weather Stations






























Interactive Weather Map
Tropical Storm Tracking
New forecast layout! Learn more

10-Day Weather Forecast

Advertisements
Track Severe Weather on mobile